William J. Weber — WDC6537 — position and weather

sailwx.info

Track history (hours):
 
Tides and Currents Weather Stations Pressure Air Temp Water Temp Dewpoint Dewpoint Depression Visibility Wind Speed Wind Dir Waves Ship Positions

William J. Weber

Owner: American Commercial Lines LLC, Jeffersonville, IN. More information available from US FCC via Universal Licensing System and Coast Guard Vessel Documentation Center.

Last reported at 2015-Aug-04 05:26 UTC. Time now 2015-Aug-04 09:40 UTC.
Position N 29°55' W 090°08'.

Length 23 m.

Type: Towing. MMSI: 367057640.

Date/timePositionNaut miles runAvg speedWind from/ knotsBaromVisibWave heightAir tempDewpointWater temp
2015-Aug-04 05:26N 29°55' W 090°08'4 4.5
2015-Aug-04 04:32N 29°56' W 090°04'31 1.4
2015-Aug-03 06:27N 29°34' W 090°29'5 5.5
2015-Aug-03 05:31N 29°34' W 090°34'4 4.1
2015-Aug-03 04:32N 29°36' W 090°39'3 3.4
2015-Aug-03 03:34N 29°35' W 090°43'2 2.2
2015-Aug-03 02:34N 29°34' W 090°44'  
2015-Jul-31 09:27N 29°22' W 094°49'8 0.2
2015-Jul-29 22:21N 29°29' W 094°52'6 7.6
2015-Jul-29 21:34N 29°34' W 094°55'8 7.7
2015-Jul-29 20:33N 29°41' W 094°59'8 6.3
2015-Jul-29 19:21N 29°46' W 095°05'0 0.0
2015-Jul-28 20:04N 29°46' W 095°05'0 0.5
2015-Jul-28 19:32N 29°46' W 095°05'0 0.0
2015-Jul-28 18:33N 29°46' W 095°05'0 0.0
2015-Jul-28 17:30N 29°46' W 095°05'0 0.0
2015-Jul-28 16:18N 29°46' W 095°05'0 0.0
2015-Jul-28 15:21N 29°46' W 095°05'0 0.0
2015-Jul-28 14:23N 29°46' W 095°05'0 0.0
2015-Jul-28 13:16N 29°46' W 095°05'0 0.0
2015-Jul-28 11:28N 29°46' W 095°05'4 2.3
2015-Jul-28 09:33N 29°44' W 095°01'8 7.7
2015-Jul-28 08:33N 29°37' W 094°57'8 8.4
2015-Jul-28 07:33N 29°30' W 094°52'7 5.7
2015-Jul-28 06:15N 29°22' W 094°51'  
Track history (hours):
 
Tides and Currents Weather Stations Pressure Air Temp Water Temp Dewpoint Dewpoint Depression Visibility Wind Speed Wind Dir Waves Ship Positions

William J. Weber

Owner: American Commercial Lines LLC, Jeffersonville, IN. More information available from US FCC via Universal Licensing System and Coast Guard Vessel Documentation Center.

Last reported at 2015-Aug-04 05:26 UTC. Time now 2015-Aug-04 09:40 UTC.
Position N 29°55' W 090°08'.

Length 23 m.

Type: Towing. MMSI: 367057640.

Date/timePositionNaut miles runAvg speedWind from/ knotsBaromVisibWave heightAir tempDewpointWater temp
2015-Aug-04 05:26N 29°55' W 090°08'4 4.5
2015-Aug-04 04:32N 29°56' W 090°04'31 1.4
2015-Aug-03 06:27N 29°34' W 090°29'5 5.5
2015-Aug-03 05:31N 29°34' W 090°34'4 4.1
2015-Aug-03 04:32N 29°36' W 090°39'3 3.4
2015-Aug-03 03:34N 29°35' W 090°43'2 2.2
2015-Aug-03 02:34N 29°34' W 090°44'  
2015-Jul-31 09:27N 29°22' W 094°49'8 0.2
2015-Jul-29 22:21N 29°29' W 094°52'6 7.6
2015-Jul-29 21:34N 29°34' W 094°55'8 7.7
2015-Jul-29 20:33N 29°41' W 094°59'8 6.3
2015-Jul-29 19:21N 29°46' W 095°05'0 0.0
2015-Jul-28 20:04N 29°46' W 095°05'0 0.5
2015-Jul-28 19:32N 29°46' W 095°05'0 0.0
2015-Jul-28 18:33N 29°46' W 095°05'0 0.0
2015-Jul-28 17:30N 29°46' W 095°05'0 0.0
2015-Jul-28 16:18N 29°46' W 095°05'0 0.0
2015-Jul-28 15:21N 29°46' W 095°05'0 0.0
2015-Jul-28 14:23N 29°46' W 095°05'0 0.0
2015-Jul-28 13:16N 29°46' W 095°05'0 0.0
2015-Jul-28 11:28N 29°46' W 095°05'4 2.3
2015-Jul-28 09:33N 29°44' W 095°01'8 7.7
2015-Jul-28 08:33N 29°37' W 094°57'8 8.4
2015-Jul-28 07:33N 29°30' W 094°52'7 5.7
2015-Jul-28 06:15N 29°22' W 094°51'  

Dump ship's entire track history